sensor_id;sensor_type;location;lat;lon;timestamp;pressure;altitude;pressure_sealevel;temperature;humidity
17054;BME280;8643;48.824;11.422;2023-06-22T00:00:38;97069.72;;;17.29;100.00
17054;BME280;8643;48.824;11.422;2023-06-22T00:03:11;97058.19;;;17.27;100.00
17054;BME280;8643;48.824;11.422;2023-06-22T00:05:41;97054.63;;;17.27;100.00
17054;BME280;8643;48.824;11.422;2023-06-22T00:08:09;97050.75;;;17.31;100.00
17054;BME280;8643;48.824;11.422;2023-06-22T00:10:38;97046.91;;;17.39;100.00
17054;BME280;8643;48.824;11.422;2023-06-22T00:13:09;97044.59;;;17.45;100.00
17054;BME280;8643;48.824;11.422;2023-06-22T00:15:40;97045.44;;;17.46;100.00
17054;BME280;8643;48.824;11.422;2023-06-22T00:18:11;97044.69;;;17.49;100.00
17054;BME280;8643;48.824;11.422;2023-06-22T00:20:42;97044.31;;;17.50;100.00
17054;BME280;8643;48.824;11.422;2023-06-22T00:23:13;97057.38;;;17.53;100.00
17054;BME280;8643;48.824;11.422;2023-06-22T00:25:44;97047.13;;;17.54;100.00
17054;BME280;8643;48.824;11.422;2023-06-22T00:28:13;97051.94;;;17.61;100.00
17054;BME280;8643;48.824;11.422;2023-06-22T00:30:42;97057.94;;;17.66;100.00
17054;BME280;8643;48.824;11.422;2023-06-22T00:33:12;97054.38;;;17.66;100.00
17054;BME280;8643;48.824;11.422;2023-06-22T00:35:41;97046.06;;;17.66;100.00
17054;BME280;8643;48.824;11.422;2023-06-22T00:38:10;97038.38;;;17.52;100.00
17054;BME280;8643;48.824;11.422;2023-06-22T00:40:38;97044.56;;;17.41;100.00
17054;BME280;8643;48.824;11.422;2023-06-22T00:43:07;97040.59;;;17.39;100.00
17054;BME280;8643;48.824;11.422;2023-06-22T00:45:36;97043.28;;;17.35;100.00
17054;BME280;8643;48.824;11.422;2023-06-22T00:48:06;97031.97;;;17.44;100.00
17054;BME280;8643;48.824;11.422;2023-06-22T00:50:37;97037.50;;;17.44;100.00
17054;BME280;8643;48.824;11.422;2023-06-22T00:53:07;97048.53;;;17.40;100.00
17054;BME280;8643;48.824;11.422;2023-06-22T00:55:42;97041.25;;;17.32;100.00
17054;BME280;8643;48.824;11.422;2023-06-22T00:58:13;97049.81;;;17.20;100.00
17054;BME280;8643;48.824;11.422;2023-06-22T01:00:42;97050.88;;;17.12;100.00
17054;BME280;8643;48.824;11.422;2023-06-22T01:03:11;97050.44;;;17.10;100.00
17054;BME280;8643;48.824;11.422;2023-06-22T01:05:41;97053.09;;;17.02;100.00
17054;BME280;8643;48.824;11.422;2023-06-22T01:08:27;97037.50;;;16.91;100.00
17054;BME280;8643;48.824;11.422;2023-06-22T01:11:10;97041.38;;;16.86;100.00
17054;BME280;8643;48.824;11.422;2023-06-22T01:13:50;97042.91;;;16.83;100.00
17054;BME280;8643;48.824;11.422;2023-06-22T01:16:23;97057.50;;;16.84;100.00
17054;BME280;8643;48.824;11.422;2023-06-22T01:19:01;97061.16;;;16.88;100.00
17054;BME280;8643;48.824;11.422;2023-06-22T01:21:34;97065.22;;;16.94;100.00
17054;BME280;8643;48.824;11.422;2023-06-22T01:24:14;97052.06;;;16.88;100.00
17054;BME280;8643;48.824;11.422;2023-06-22T01:26:57;97053.97;;;16.83;100.00
17054;BME280;8643;48.824;11.422;2023-06-22T01:29:32;97066.31;;;16.90;100.00
17054;BME280;8643;48.824;11.422;2023-06-22T01:32:03;97065.16;;;16.91;100.00
17054;BME280;8643;48.824;11.422;2023-06-22T01:34:36;97063.19;;;16.91;100.00
17054;BME280;8643;48.824;11.422;2023-06-22T01:37:08;97067.88;;;16.87;100.00
17054;BME280;8643;48.824;11.422;2023-06-22T01:39:37;97073.03;;;16.89;100.00
17054;BME280;8643;48.824;11.422;2023-06-22T01:42:06;97073.69;;;16.82;100.00
17054;BME280;8643;48.824;11.422;2023-06-22T01:44:37;97068.88;;;16.79;100.00
17054;BME280;8643;48.824;11.422;2023-06-22T01:47:09;97057.31;;;16.73;100.00
17054;BME280;8643;48.824;11.422;2023-06-22T01:49:39;97063.34;;;16.79;100.00
17054;BME280;8643;48.824;11.422;2023-06-22T01:52:08;97073.03;;;16.89;100.00
17054;BME280;8643;48.824;11.422;2023-06-22T01:54:38;97079.34;;;16.89;100.00
17054;BME280;8643;48.824;11.422;2023-06-22T01:57:06;97065.91;;;16.88;100.00
17054;BME280;8643;48.824;11.422;2023-06-22T01:59:46;97074.56;;;16.86;100.00
17054;BME280;8643;48.824;11.422;2023-06-22T02:02:20;97072.13;;;16.84;100.00
17054;BME280;8643;48.824;11.422;2023-06-22T02:04:56;97068.88;;;16.79;100.00
17054;BME280;8643;48.824;11.422;2023-06-22T02:07:34;97068.94;;;16.82;100.00
17054;BME280;8643;48.824;11.422;2023-06-22T02:10:08;97069.38;;;16.84;100.00
17054;BME280;8643;48.824;11.422;2023-06-22T02:12:40;97070.56;;;16.83;100.00
17054;BME280;8643;48.824;11.422;2023-06-22T02:15:12;97063.13;;;16.88;100.00
17054;BME280;8643;48.824;11.422;2023-06-22T02:17:43;97058.38;;;16.88;100.00
17054;BME280;8643;48.824;11.422;2023-06-22T02:20:13;97054.03;;;16.87;100.00
17054;BME280;8643;48.824;11.422;2023-06-22T02:22:42;97044.84;;;16.83;100.00
17054;BME280;8643;48.824;11.422;2023-06-22T02:25:10;97052.72;;;16.81;100.00
17054;BME280;8643;48.824;11.422;2023-06-22T02:27:39;97050.28;;;16.76;100.00
17054;BME280;8643;48.824;11.422;2023-06-22T02:30:12;97051.84;;;16.77;100.00
17054;BME280;8643;48.824;11.422;2023-06-22T02:32:42;97052.66;;;16.77;100.00
17054;BME280;8643;48.824;11.422;2023-06-22T02:35:11;97048.66;;;16.75;100.00
17054;BME280;8643;48.824;11.422;2023-06-22T02:37:40;97036.50;;;16.79;100.00
17054;BME280;8643;48.824;11.422;2023-06-22T02:40:10;97034.53;;;16.80;100.00
17054;BME280;8643;48.824;11.422;2023-06-22T02:42:39;97037.97;;;16.73;100.00
17054;BME280;8643;48.824;11.422;2023-06-22T02:45:09;97036.44;;;16.76;100.00
17054;BME280;8643;48.824;11.422;2023-06-22T02:47:39;97036.13;;;16.81;100.00
17054;BME280;8643;48.824;11.422;2023-06-22T02:50:09;97044.47;;;16.84;100.00
17054;BME280;8643;48.824;11.422;2023-06-22T02:52:37;97040.81;;;17.00;100.00
17054;BME280;8643;48.824;11.422;2023-06-22T02:55:08;97049.63;;;17.09;100.00
17054;BME280;8643;48.824;11.422;2023-06-22T02:57:37;97046.63;;;17.18;100.00
17054;BME280;8643;48.824;11.422;2023-06-22T03:00:14;97046.34;;;17.27;100.00
17054;BME280;8643;48.824;11.422;2023-06-22T03:02:49;97042.09;;;17.33;100.00
17054;BME280;8643;48.824;11.422;2023-06-22T03:05:19;97043.97;;;17.29;100.00
17054;BME280;8643;48.824;11.422;2023-06-22T03:07:48;97042.81;;;17.30;100.00
17054;BME280;8643;48.824;11.422;2023-06-22T03:10:17;97040.00;;;17.26;100.00
17054;BME280;8643;48.824;11.422;2023-06-22T03:12:46;97035.72;;;17.32;100.00
17054;BME280;8643;48.824;11.422;2023-06-22T03:15:15;97037.81;;;17.39;100.00
17054;BME280;8643;48.824;11.422;2023-06-22T03:17:48;97025.97;;;17.42;100.00
17054;BME280;8643;48.824;11.422;2023-06-22T03:20:17;97031.06;;;17.36;100.00
17054;BME280;8643;48.824;11.422;2023-06-22T03:22:46;97033.88;;;17.40;100.00
17054;BME280;8643;48.824;11.422;2023-06-22T03:25:16;97035.50;;;17.45;100.00
17054;BME280;8643;48.824;11.422;2023-06-22T03:27:48;97033.50;;;17.41;100.00
17054;BME280;8643;48.824;11.422;2023-06-22T03:30:17;97035.47;;;17.41;100.00
17054;BME280;8643;48.824;11.422;2023-06-22T03:32:47;97032.00;;;17.48;100.00
17054;BME280;8643;48.824;11.422;2023-06-22T03:35:16;97034.34;;;17.46;100.00
17054;BME280;8643;48.824;11.422;2023-06-22T03:37:46;97040.84;;;17.57;100.00
17054;BME280;8643;48.824;11.422;2023-06-22T03:40:15;97036.47;;;17.56;100.00
17054;BME280;8643;48.824;11.422;2023-06-22T03:42:44;97040.91;;;17.64;100.00
17054;BME280;8643;48.824;11.422;2023-06-22T03:45:13;97039.31;;;17.63;100.00
17054;BME280;8643;48.824;11.422;2023-06-22T03:47:41;97040.16;;;17.67;100.00
17054;BME280;8643;48.824;11.422;2023-06-22T03:50:11;97052.84;;;17.68;100.00
17054;BME280;8643;48.824;11.422;2023-06-22T03:52:41;97053.25;;;17.70;100.00
17054;BME280;8643;48.824;11.422;2023-06-22T03:55:12;97054.97;;;17.82;100.00
17054;BME280;8643;48.824;11.422;2023-06-22T03:57:44;97059.50;;;17.94;100.00
17054;BME280;8643;48.824;11.422;2023-06-22T04:00:14;97065.78;;;17.91;100.00
17054;BME280;8643;48.824;11.422;2023-06-22T04:02:44;97061.84;;;17.92;100.00
17054;BME280;8643;48.824;11.422;2023-06-22T04:05:14;97065.03;;;17.94;100.00
17054;BME280;8643;48.824;11.422;2023-06-22T04:07:45;97065.94;;;18.02;100.00
17054;BME280;8643;48.824;11.422;2023-06-22T04:10:13;97055.63;;;18.02;100.00
17054;BME280;8643;48.824;11.422;2023-06-22T04:12:44;97065.03;;;17.94;100.00
17054;BME280;8643;48.824;11.422;2023-06-22T04:15:13;97057.94;;;17.93;100.00
17054;BME280;8643;48.824;11.422;2023-06-22T04:17:42;97054.69;;;17.87;100.00
17054;BME280;8643;48.824;11.422;2023-06-22T04:20:11;97054.03;;;17.98;100.00
17054;BME280;8643;48.824;11.422;2023-06-22T04:22:41;97051.66;;;18.00;100.00
17054;BME280;8643;48.824;11.422;2023-06-22T04:25:09;97055.81;;;18.17;100.00
17054;BME280;8643;48.824;11.422;2023-06-22T04:27:38;97060.28;;;18.28;100.00
17054;BME280;8643;48.824;11.422;2023-06-22T04:30:08;97063.13;;;18.32;100.00
17054;BME280;8643;48.824;11.422;2023-06-22T04:32:38;97059.50;;;18.28;100.00
17054;BME280;8643;48.824;11.422;2023-06-22T04:35:09;97057.63;;;18.39;100.00
17054;BME280;8643;48.824;11.422;2023-06-22T04:37:38;97050.56;;;18.45;100.00
17054;BME280;8643;48.824;11.422;2023-06-22T04:40:09;97052.63;;;18.52;100.00
17054;BME280;8643;48.824;11.422;2023-06-22T04:42:38;97048.38;;;18.65;100.00
17054;BME280;8643;48.824;11.422;2023-06-22T04:45:09;97048.88;;;18.78;100.00
17054;BME280;8643;48.824;11.422;2023-06-22T04:47:38;97053.38;;;18.90;100.00
17054;BME280;8643;48.824;11.422;2023-06-22T04:50:07;97049.50;;;19.02;100.00
17054;BME280;8643;48.824;11.422;2023-06-22T04:52:36;97042.13;;;19.28;100.00
17054;BME280;8643;48.824;11.422;2023-06-22T04:55:05;97041.09;;;19.50;100.00
17054;BME280;8643;48.824;11.422;2023-06-22T04:57:35;97046.31;;;19.59;100.00
17054;BME280;8643;48.824;11.422;2023-06-22T05:00:08;97049.13;;;19.70;100.00
17054;BME280;8643;48.824;11.422;2023-06-22T05:02:46;97049.19;;;19.77;100.00
17054;BME280;8643;48.824;11.422;2023-06-22T05:05:15;97044.06;;;19.86;100.00
17054;BME280;8643;48.824;11.422;2023-06-22T05:07:46;97042.13;;;19.98;100.00
17054;BME280;8643;48.824;11.422;2023-06-22T05:10:18;97042.16;;;20.05;100.00
17054;BME280;8643;48.824;11.422;2023-06-22T05:12:48;97047.34;;;20.06;100.00
17054;BME280;8643;48.824;11.422;2023-06-22T05:15:17;97039.34;;;19.94;100.00
17054;BME280;8643;48.824;11.422;2023-06-22T05:17:47;97032.22;;;19.96;100.00
17054;BME280;8643;48.824;11.422;2023-06-22T05:20:16;97026.66;;;19.96;100.00
17054;BME280;8643;48.824;11.422;2023-06-22T05:22:45;97017.53;;;20.00;100.00
17054;BME280;8643;48.824;11.422;2023-06-22T05:25:14;97030.66;;;20.10;100.00
17054;BME280;8643;48.824;11.422;2023-06-22T05:27:43;97024.31;;;20.20;100.00
17054;BME280;8643;48.824;11.422;2023-06-22T05:30:13;97025.94;;;20.32;100.00
17054;BME280;8643;48.824;11.422;2023-06-22T05:32:45;97022.78;;;20.44;100.00
17054;BME280;8643;48.824;11.422;2023-06-22T05:35:14;97021.22;;;20.54;100.00
17054;BME280;8643;48.824;11.422;2023-06-22T05:37:42;97025.59;;;20.62;100.00
17054;BME280;8643;48.824;11.422;2023-06-22T05:40:12;97020.06;;;20.77;100.00
17054;BME280;8643;48.824;11.422;2023-06-22T05:42:41;97025.22;;;20.89;100.00
17054;BME280;8643;48.824;11.422;2023-06-22T05:45:10;97017.28;;;21.09;100.00
17054;BME280;8643;48.824;11.422;2023-06-22T05:47:40;97020.03;;;21.16;100.00
17054;BME280;8643;48.824;11.422;2023-06-22T05:50:09;97014.41;;;21.38;100.00
17054;BME280;8643;48.824;11.422;2023-06-22T05:52:40;97012.44;;;21.38;100.00
17054;BME280;8643;48.824;11.422;2023-06-22T05:55:09;97011.22;;;21.39;100.00
17054;BME280;8643;48.824;11.422;2023-06-22T05:57:38;97000.09;;;21.47;100.00
17054;BME280;8643;48.824;11.422;2023-06-22T06:00:08;97005.66;;;21.61;100.00
17054;BME280;8643;48.824;11.422;2023-06-22T06:02:40;97006.41;;;21.69;100.00
17054;BME280;8643;48.824;11.422;2023-06-22T06:05:11;97005.41;;;22.15;100.00
17054;BME280;8643;48.824;11.422;2023-06-22T06:07:41;97008.94;;;22.30;100.00
17054;BME280;8643;48.824;11.422;2023-06-22T06:10:10;97002.59;;;22.78;100.00
17054;BME280;8643;48.824;11.422;2023-06-22T06:12:39;97009.16;;;23.02;100.00
17054;BME280;8643;48.824;11.422;2023-06-22T06:15:08;97006.22;;;23.20;100.00
17054;BME280;8643;48.824;11.422;2023-06-22T06:17:47;96998.50;;;23.35;100.00
17054;BME280;8643;48.824;11.422;2023-06-22T06:20:17;97025.19;;;23.43;100.00
17054;BME280;8643;48.824;11.422;2023-06-22T06:22:46;97008.91;;;23.69;100.00
17054;BME280;8643;48.824;11.422;2023-06-22T06:25:15;97004.38;;;23.79;100.00
17054;BME280;8643;48.824;11.422;2023-06-22T06:27:45;97002.41;;;23.79;100.00
17054;BME280;8643;48.824;11.422;2023-06-22T06:30:15;96987.75;;;24.03;100.00
17054;BME280;8643;48.824;11.422;2023-06-22T06:32:46;96994.19;;;24.00;100.00
17054;BME280;8643;48.824;11.422;2023-06-22T06:35:16;96995.63;;;24.39;100.00
17054;BME280;8643;48.824;11.422;2023-06-22T06:37:48;96998.19;;;24.57;98.39
17054;BME280;8643;48.824;11.422;2023-06-22T06:40:18;97000.84;;;24.67;98.09
17054;BME280;8643;48.824;11.422;2023-06-22T06:42:48;96991.03;;;25.03;96.69
17054;BME280;8643;48.824;11.422;2023-06-22T06:45:19;96988.19;;;25.06;92.61
17054;BME280;8643;48.824;11.422;2023-06-22T06:47:52;96981.59;;;25.60;91.54
17054;BME280;8643;48.824;11.422;2023-06-22T06:50:21;96978.72;;;25.64;93.36
17054;BME280;8643;48.824;11.422;2023-06-22T06:52:49;96990.09;;;25.97;87.76
17054;BME280;8643;48.824;11.422;2023-06-22T06:55:18;96995.06;;;26.09;95.13
17054;BME280;8643;48.824;11.422;2023-06-22T06:57:47;96990.50;;;25.75;88.20
17054;BME280;8643;48.824;11.422;2023-06-22T07:00:18;96982.59;;;26.10;82.66
17054;BME280;8643;48.824;11.422;2023-06-22T07:02:47;96981.72;;;26.50;87.08
17054;BME280;8643;48.824;11.422;2023-06-22T07:05:17;96976.88;;;26.14;83.30
17054;BME280;8643;48.824;11.422;2023-06-22T07:07:46;96974.59;;;26.45;82.33
17054;BME280;8643;48.824;11.422;2023-06-22T07:10:15;96972.81;;;26.35;80.84
17054;BME280;8643;48.824;11.422;2023-06-22T07:12:43;96967.94;;;26.88;83.70
17054;BME280;8643;48.824;11.422;2023-06-22T07:15:13;96970.19;;;26.61;81.91
17054;BME280;8643;48.824;11.422;2023-06-22T07:17:42;96971.09;;;26.91;78.78
17054;BME280;8643;48.824;11.422;2023-06-22T07:20:12;96972.31;;;27.06;78.06
17054;BME280;8643;48.824;11.422;2023-06-22T07:22:43;96970.06;;;27.01;78.93
17054;BME280;8643;48.824;11.422;2023-06-22T07:25:13;96967.69;;;27.45;79.27
17054;BME280;8643;48.824;11.422;2023-06-22T07:27:56;96970.78;;;27.64;73.24
17054;BME280;8643;48.824;11.422;2023-06-22T07:30:25;96969.16;;;27.79;71.98
17054;BME280;8643;48.824;11.422;2023-06-22T07:32:54;96968.31;;;28.08;76.52
17054;BME280;8643;48.824;11.422;2023-06-22T07:35:23;96962.84;;;28.43;69.64
17054;BME280;8643;48.824;11.422;2023-06-22T07:37:53;96962.03;;;28.04;71.28
17054;BME280;8643;48.824;11.422;2023-06-22T07:40:21;96950.53;;;28.11;73.81
17054;BME280;8643;48.824;11.422;2023-06-22T07:42:50;96948.22;;;28.61;73.39
17054;BME280;8643;48.824;11.422;2023-06-22T07:45:20;96942.41;;;28.90;69.78
17054;BME280;8643;48.824;11.422;2023-06-22T07:47:49;96932.16;;;28.96;69.70
17054;BME280;8643;48.824;11.422;2023-06-22T07:50:18;96938.97;;;29.43;69.90
17054;BME280;8643;48.824;11.422;2023-06-22T07:52:47;96937.06;;;29.40;70.04
17054;BME280;8643;48.824;11.422;2023-06-22T07:55:17;96920.34;;;29.23;73.81
17054;BME280;8643;48.824;11.422;2023-06-22T07:57:48;96932.53;;;29.20;70.92
17054;BME280;8643;48.824;11.422;2023-06-22T08:00:19;96936.16;;;29.43;69.89
17054;BME280;8643;48.824;11.422;2023-06-22T08:02:48;96925.69;;;29.43;67.37
17054;BME280;8643;48.824;11.422;2023-06-22T08:05:17;96938.00;;;29.59;65.91
17054;BME280;8643;48.824;11.422;2023-06-22T08:07:49;96937.25;;;29.68;64.63
17054;BME280;8643;48.824;11.422;2023-06-22T08:10:19;96938.25;;;29.17;65.58
17054;BME280;8643;48.824;11.422;2023-06-22T08:12:48;96946.44;;;30.03;67.11
17054;BME280;8643;48.824;11.422;2023-06-22T08:15:17;96935.63;;;29.57;63.84
17054;BME280;8643;48.824;11.422;2023-06-22T08:17:46;96938.91;;;29.56;65.24
17054;BME280;8643;48.824;11.422;2023-06-22T08:20:14;96938.59;;;29.54;67.55
17054;BME280;8643;48.824;11.422;2023-06-22T08:22:43;96936.81;;;29.69;66.49
17054;BME280;8643;48.824;11.422;2023-06-22T08:25:12;96940.63;;;29.97;64.56
17054;BME280;8643;48.824;11.422;2023-06-22T08:27:47;96935.75;;;30.29;63.46
17054;BME280;8643;48.824;11.422;2023-06-22T08:30:16;96936.88;;;30.32;63.54
17054;BME280;8643;48.824;11.422;2023-06-22T08:32:45;96947.72;;;30.74;66.31
17054;BME280;8643;48.824;11.422;2023-06-22T08:35:14;96950.56;;;30.93;60.38
17054;BME280;8643;48.824;11.422;2023-06-22T08:37:43;96944.44;;;30.94;59.07
17054;BME280;8643;48.824;11.422;2023-06-22T08:40:18;96938.53;;;31.48;58.48
17054;BME280;8643;48.824;11.422;2023-06-22T08:42:49;96933.97;;;31.32;59.63
17054;BME280;8643;48.824;11.422;2023-06-22T08:45:18;96939.50;;;31.54;58.48
17054;BME280;8643;48.824;11.422;2023-06-22T08:47:46;96951.97;;;30.79;55.85
17054;BME280;8643;48.824;11.422;2023-06-22T08:50:15;96944.34;;;30.57;60.44
17054;BME280;8643;48.824;11.422;2023-06-22T08:52:44;96938.88;;;30.22;57.16
17054;BME280;8643;48.824;11.422;2023-06-22T08:55:13;96949.03;;;31.01;59.49
17054;BME280;8643;48.824;11.422;2023-06-22T08:57:42;96940.59;;;31.75;58.81
17054;BME280;8643;48.824;11.422;2023-06-22T09:00:14;96940.66;;;31.99;57.15
17054;BME280;8643;48.824;11.422;2023-06-22T09:02:53;96927.31;;;32.00;56.20
17054;BME280;8643;48.824;11.422;2023-06-22T09:05:26;96927.78;;;31.98;54.05
17054;BME280;8643;48.824;11.422;2023-06-22T09:07:56;96921.59;;;32.18;54.61
17054;BME280;8643;48.824;11.422;2023-06-22T09:10:26;96930.91;;;32.52;52.42
17054;BME280;8643;48.824;11.422;2023-06-22T09:12:55;96924.06;;;32.34;53.50
17054;BME280;8643;48.824;11.422;2023-06-22T09:15:25;96924.13;;;32.49;52.58
17054;BME280;8643;48.824;11.422;2023-06-22T09:17:54;96920.97;;;32.57;51.57
17054;BME280;8643;48.824;11.422;2023-06-22T09:20:24;96913.53;;;33.17;54.59
17054;BME280;8643;48.824;11.422;2023-06-22T09:22:53;96911.75;;;32.95;51.18
17054;BME280;8643;48.824;11.422;2023-06-22T09:25:21;96903.78;;;32.60;51.69
17054;BME280;8643;48.824;11.422;2023-06-22T09:27:50;96910.41;;;32.57;52.25
17054;BME280;8643;48.824;11.422;2023-06-22T09:30:19;96910.66;;;33.02;50.38
17054;BME280;8643;48.824;11.422;2023-06-22T09:32:50;96905.25;;;33.28;51.65
17054;BME280;8643;48.824;11.422;2023-06-22T09:35:19;96902.38;;;32.89;49.37
17054;BME280;8643;48.824;11.422;2023-06-22T09:37:48;96902.34;;;33.13;49.36
17054;BME280;8643;48.824;11.422;2023-06-22T09:40:17;96889.19;;;33.94;50.25
17054;BME280;8643;48.824;11.422;2023-06-22T09:42:46;96894.56;;;33.92;48.95
17054;BME280;8643;48.824;11.422;2023-06-22T09:45:15;96885.75;;;34.05;49.56
17054;BME280;8643;48.824;11.422;2023-06-22T09:47:43;96883.47;;;34.24;50.34
17054;BME280;8643;48.824;11.422;2023-06-22T09:50:13;96883.09;;;34.01;48.70
17054;BME280;8643;48.824;11.422;2023-06-22T09:52:43;96882.81;;;34.49;50.03
17054;BME280;8643;48.824;11.422;2023-06-22T09:55:15;96877.06;;;35.00;48.73
17054;BME280;8643;48.824;11.422;2023-06-22T09:57:44;96875.28;;;34.46;49.57
17054;BME280;8643;48.824;11.422;2023-06-22T10:00:14;96864.81;;;33.87;45.26
17054;BME280;8643;48.824;11.422;2023-06-22T10:02:44;96863.78;;;33.46;48.47
17054;BME280;8643;48.824;11.422;2023-06-22T10:05:14;96867.28;;;34.30;50.77
17054;BME280;8643;48.824;11.422;2023-06-22T10:07:43;96867.50;;;34.62;47.26
17054;BME280;8643;48.824;11.422;2023-06-22T10:10:13;96862.25;;;35.16;47.22
17054;BME280;8643;48.824;11.422;2023-06-22T10:12:46;96866.41;;;34.95;46.68
17054;BME280;8643;48.824;11.422;2023-06-22T10:15:15;96860.84;;;35.06;46.43
17054;BME280;8643;48.824;11.422;2023-06-22T10:17:44;96854.66;;;34.87;47.95
17054;BME280;8643;48.824;11.422;2023-06-22T10:20:15;96851.00;;;35.28;47.32
17054;BME280;8643;48.824;11.422;2023-06-22T10:22:46;96843.47;;;35.77;45.64
17054;BME280;8643;48.824;11.422;2023-06-22T10:25:14;96844.31;;;35.57;43.22
17054;BME280;8643;48.824;11.422;2023-06-22T10:27:43;96851.28;;;35.82;46.52
17054;BME280;8643;48.824;11.422;2023-06-22T10:30:13;96848.84;;;35.95;44.09
17054;BME280;8643;48.824;11.422;2023-06-22T10:32:42;96853.19;;;35.65;46.35
17054;BME280;8643;48.824;11.422;2023-06-22T10:35:11;96842.47;;;35.80;44.82
17054;BME280;8643;48.824;11.422;2023-06-22T10:37:46;96845.56;;;35.50;44.74
17054;BME280;8643;48.824;11.422;2023-06-22T10:40:16;96842.78;;;35.09;42.30
17054;BME280;8643;48.824;11.422;2023-06-22T10:42:46;96835.16;;;35.00;46.68
17054;BME280;8643;48.824;11.422;2023-06-22T10:45:14;96833.78;;;35.37;45.47
17054;BME280;8643;48.824;11.422;2023-06-22T10:47:43;96835.94;;;35.48;46.90
17054;BME280;8643;48.824;11.422;2023-06-22T10:50:12;96834.56;;;35.37;44.81
17054;BME280;8643;48.824;11.422;2023-06-22T10:52:40;96834.50;;;35.11;46.10
17054;BME280;8643;48.824;11.422;2023-06-22T10:55:11;96820.22;;;34.08;49.01
17054;BME280;8643;48.824;11.422;2023-06-22T10:57:39;96817.91;;;33.92;47.97
17054;BME280;8643;48.824;11.422;2023-06-22T11:00:12;96818.38;;;34.41;47.49
17054;BME280;8643;48.824;11.422;2023-06-22T11:02:41;96806.69;;;34.74;49.61
17054;BME280;8643;48.824;11.422;2023-06-22T11:05:10;96814.63;;;34.91;49.31
17054;BME280;8643;48.824;11.422;2023-06-22T11:07:42;96814.38;;;34.53;46.54
17054;BME280;8643;48.824;11.422;2023-06-22T11:10:13;96814.06;;;34.86;47.37
17054;BME280;8643;48.824;11.422;2023-06-22T11:12:42;96816.63;;;35.57;46.29
17054;BME280;8643;48.824;11.422;2023-06-22T11:15:11;96821.72;;;36.11;45.59
17054;BME280;8643;48.824;11.422;2023-06-22T11:17:39;96828.81;;;35.84;42.55
17054;BME280;8643;48.824;11.422;2023-06-22T11:20:09;96827.16;;;36.47;42.11
17054;BME280;8643;48.824;11.422;2023-06-22T11:22:40;96823.94;;;36.28;44.71
17054;BME280;8643;48.824;11.422;2023-06-22T11:25:09;96813.66;;;35.46;44.86
17054;BME280;8643;48.824;11.422;2023-06-22T11:27:40;96809.97;;;35.92;43.88
17054;BME280;8643;48.824;11.422;2023-06-22T11:30:10;96807.94;;;35.99;44.47
17054;BME280;8643;48.824;11.422;2023-06-22T11:32:38;96801.94;;;36.34;45.44
17054;BME280;8643;48.824;11.422;2023-06-22T11:35:08;96795.53;;;37.05;44.42
17054;BME280;8643;48.824;11.422;2023-06-22T11:37:36;96803.25;;;36.82;43.54
17054;BME280;8643;48.824;11.422;2023-06-22T11:40:06;96794.28;;;36.57;41.16
17054;BME280;8643;48.824;11.422;2023-06-22T11:42:36;96794.06;;;36.66;44.88
17054;BME280;8643;48.824;11.422;2023-06-22T11:45:07;96795.47;;;35.38;41.12
17054;BME280;8643;48.824;11.422;2023-06-22T11:47:36;96789.88;;;35.75;42.57
17054;BME280;8643;48.824;11.422;2023-06-22T11:50:06;96786.56;;;36.20;43.70
17054;BME280;8643;48.824;11.422;2023-06-22T11:52:35;96778.09;;;35.62;44.89
17054;BME280;8643;48.824;11.422;2023-06-22T11:55:05;96784.78;;;35.53;43.60
17054;BME280;8643;48.824;11.422;2023-06-22T11:57:35;96770.25;;;34.99;43.70
17054;BME280;8643;48.824;11.422;2023-06-22T12:00:08;96768.97;;;36.22;42.40
17054;BME280;8643;48.824;11.422;2023-06-22T12:02:43;96765.91;;;35.88;41.25
17054;BME280;8643;48.824;11.422;2023-06-22T12:05:12;96763.94;;;35.41;44.47
17054;BME280;8643;48.824;11.422;2023-06-22T12:07:41;96757.59;;;35.84;45.41
17054;BME280;8643;48.824;11.422;2023-06-22T12:10:10;96753.50;;;34.80;41.56
17054;BME280;8643;48.824;11.422;2023-06-22T12:12:39;96757.97;;;35.13;46.13
17054;BME280;8643;48.824;11.422;2023-06-22T12:15:10;96742.09;;;35.91;42.41
17054;BME280;8643;48.824;11.422;2023-06-22T12:17:40;96746.63;;;36.14;41.84
17054;BME280;8643;48.824;11.422;2023-06-22T12:20:09;96748.19;;;35.46;45.70
17054;BME280;8643;48.824;11.422;2023-06-22T12:22:38;96752.59;;;34.12;42.20
17054;BME280;8643;48.824;11.422;2023-06-22T12:25:08;96742.41;;;35.09;46.06
17054;BME280;8643;48.824;11.422;2023-06-22T12:27:38;96743.72;;;35.34;46.18
17054;BME280;8643;48.824;11.422;2023-06-22T12:30:09;96737.44;;;35.93;44.84
17054;BME280;8643;48.824;11.422;2023-06-22T12:32:38;96743.03;;;36.20;41.91
17054;BME280;8643;48.824;11.422;2023-06-22T12:35:07;96746.66;;;35.77;40.65
17054;BME280;8643;48.824;11.422;2023-06-22T12:37:41;96748.47;;;35.74;42.58
17054;BME280;8643;48.824;11.422;2023-06-22T12:40:11;96742.38;;;35.61;41.79
17054;BME280;8643;48.824;11.422;2023-06-22T12:42:40;96754.63;;;35.15;44.48
17054;BME280;8643;48.824;11.422;2023-06-22T12:45:10;96753.22;;;34.78;42.59
17054;BME280;8643;48.824;11.422;2023-06-22T12:47:39;96739.75;;;35.89;43.24
17054;BME280;8643;48.824;11.422;2023-06-22T12:50:08;96729.03;;;34.68;42.77
17054;BME280;8643;48.824;11.422;2023-06-22T12:52:39;96726.50;;;34.49;44.87
17054;BME280;8643;48.824;11.422;2023-06-22T12:55:09;96719.09;;;35.31;45.85
17054;BME280;8643;48.824;11.422;2023-06-22T12:57:41;96720.94;;;35.08;44.45
17054;BME280;8643;48.824;11.422;2023-06-22T13:00:12;96714.34;;;34.96;45.80
17054;BME280;8643;48.824;11.422;2023-06-22T13:02:41;96711.34;;;34.79;44.66
17054;BME280;8643;48.824;11.422;2023-06-22T13:05:10;96711.41;;;35.11;44.63
17054;BME280;8643;48.824;11.422;2023-06-22T13:07:39;96701.47;;;34.12;43.46
17054;BME280;8643;48.824;11.422;2023-06-22T13:10:09;96706.13;;;33.74;44.45